createdAt,value
2023-05-20T00:01:32.185Z,19.98
2023-05-20T00:07:35.621Z,13.40
2023-05-20T00:13:39.432Z,18.23
2023-05-20T00:19:45.140Z,11.73
2023-05-20T00:25:48.693Z,16.48
2023-05-20T00:31:52.328Z,15.35
2023-05-20T00:37:57.618Z,14.07
2023-05-20T00:44:02.103Z,14.35
2023-05-20T00:50:05.871Z,14.32
2023-05-20T00:56:10.982Z,17.75
2023-05-20T01:02:14.744Z,14.90
2023-05-20T01:08:19.134Z,16.70
2023-05-20T01:14:26.016Z,18.92
2023-05-20T01:20:30.162Z,14.75
2023-05-20T01:26:38.497Z,14.00
2023-05-20T01:32:45.190Z,17.70
2023-05-20T01:38:49.470Z,10.52
2023-05-20T01:44:55.534Z,12.02
2023-05-20T01:50:58.990Z,14.98
2023-05-20T01:57:03.061Z,11.18
2023-05-20T02:03:07.935Z,10.75
2023-05-20T02:09:11.854Z,16.52
2023-05-20T02:15:15.762Z,11.48
2023-05-20T02:21:20.674Z,10.27
2023-05-20T02:27:24.101Z,12.95
2023-05-20T02:33:29.135Z,10.40
2023-05-20T02:39:34.090Z,9.68
2023-05-20T02:45:37.561Z,9.52
2023-05-20T02:51:41.955Z,9.68
2023-05-20T02:57:46.942Z,9.27
2023-05-20T03:03:50.791Z,8.55
2023-05-20T03:09:54.449Z,6.50
2023-05-20T03:16:01.576Z,9.60
2023-05-20T03:22:05.153Z,8.80
2023-05-20T03:28:08.534Z,9.50
2023-05-20T03:34:13.316Z,6.68
2023-05-20T03:40:16.997Z,8.05
2023-05-20T03:46:20.462Z,9.95
2023-05-20T03:52:25.660Z,9.10
2023-05-20T03:58:31.286Z,6.85
2023-05-20T04:04:34.763Z,6.20
2023-05-20T04:10:39.581Z,13.90
2023-05-20T04:16:43.649Z,8.27
2023-05-20T04:22:48.314Z,7.18
2023-05-20T04:28:53.235Z,6.63
2023-05-20T04:34:57.421Z,8.23
2023-05-20T04:41:01.636Z,8.07
2023-05-20T04:47:08.027Z,7.88
2023-05-20T04:53:11.618Z,6.53
2023-05-20T04:59:15.202Z,5.95
2023-05-20T05:05:20.242Z,8.63
2023-05-20T05:11:23.736Z,7.80
2023-05-20T05:17:29.076Z,7.28
2023-05-20T05:23:35.378Z,8.93
2023-05-20T05:29:38.846Z,9.98
2023-05-20T05:35:42.960Z,12.45
2023-05-20T05:41:47.837Z,5.75
2023-05-20T05:47:51.433Z,8.05
2023-05-20T05:53:54.981Z,7.05
2023-05-20T05:59:59.958Z,6.43
2023-05-20T06:06:03.453Z,9.55
2023-05-20T06:12:07.090Z,5.53
2023-05-20T06:18:12.162Z,6.63
2023-05-20T06:24:16.075Z,8.38
2023-05-20T06:30:19.700Z,8.57
2023-05-20T06:36:24.726Z,9.75
2023-05-20T06:42:28.232Z,7.50
2023-05-20T06:48:31.700Z,7.07
2023-05-20T06:54:40.131Z,8.00
2023-05-20T07:00:43.622Z,6.90
2023-05-20T07:06:47.004Z,6.55
2023-05-20T07:12:51.803Z,5.68
2023-05-20T07:18:55.300Z,8.05
2023-05-20T07:24:59.574Z,6.65
2023-05-20T07:31:04.522Z,7.03
2023-05-20T07:37:10.121Z,6.55
2023-05-20T07:43:13.651Z,6.75
2023-05-20T07:49:18.506Z,9.13
2023-05-20T07:55:22.332Z,7.82
2023-05-20T08:01:26.077Z,10.95
2023-05-20T08:07:30.874Z,7.65
2023-05-20T08:13:35.132Z,5.95
2023-05-20T08:19:38.672Z,6.72
2023-05-20T08:25:43.906Z,8.23
2023-05-20T08:31:47.312Z,4.95
2023-05-20T08:37:51.325Z,5.93
2023-05-20T08:43:58.870Z,4.35
2023-05-20T08:50:03.354Z,4.82
2023-05-20T08:56:07.811Z,5.70
2023-05-20T09:02:13.335Z,4.53
2023-05-20T09:08:16.877Z,5.57
2023-05-20T09:14:20.746Z,5.40
2023-05-20T09:20:25.678Z,5.53
2023-05-20T09:26:30.033Z,3.70
2023-05-20T09:32:33.572Z,6.75
2023-05-20T09:38:39.847Z,5.10
2023-05-20T09:44:45.306Z,5.82
2023-05-20T09:50:48.843Z,4.35
2023-05-20T09:56:53.924Z,5.15
2023-05-20T10:02:57.511Z,4.38
2023-05-20T10:09:07.495Z,6.00
2023-05-20T10:15:18.528Z,7.28
2023-05-20T10:21:24.667Z,3.15
2023-05-20T10:27:29.278Z,4.78
2023-05-20T10:33:43.262Z,3.75
2023-05-20T10:39:46.948Z,5.32
2023-05-20T10:45:51.308Z,5.00
2023-05-20T10:51:56.234Z,5.55
2023-05-20T10:57:59.922Z,7.25
2023-05-20T11:04:05.514Z,6.68
2023-05-20T11:10:11.909Z,6.13
2023-05-20T11:16:15.414Z,4.45
2023-05-20T11:22:18.839Z,5.78
2023-05-20T11:28:23.667Z,6.25
2023-05-20T11:34:28.758Z,5.97
2023-05-20T11:40:46.335Z,6.88
2023-05-20T11:47:00.939Z,5.18
2023-05-20T11:53:05.156Z,6.25
2023-05-20T11:59:09.214Z,5.18
2023-05-20T12:05:14.463Z,4.95
2023-05-20T12:11:18.173Z,5.05
2023-05-20T12:17:21.845Z,6.05
2023-05-20T12:23:26.876Z,6.72
2023-05-20T12:29:30.350Z,9.05
2023-05-20T12:35:39.059Z,4.25
2023-05-20T12:41:43.864Z,4.53
2023-05-20T12:47:48.449Z,4.47
2023-05-20T12:53:52.045Z,4.60
2023-05-20T12:59:56.952Z,7.50
2023-05-20T13:06:00.529Z,5.63
2023-05-20T13:12:04.054Z,5.95
2023-05-20T13:18:10.467Z,3.80
2023-05-20T13:24:14.013Z,3.47
2023-05-20T13:30:17.590Z,3.03
2023-05-20T13:36:22.537Z,4.78
2023-05-20T13:42:26.123Z,3.65
2023-05-20T13:48:30.357Z,4.80
2023-05-20T13:54:35.185Z,5.15
2023-05-20T14:00:38.748Z,3.67
2023-05-20T14:06:42.287Z,4.82
2023-05-20T14:12:48.247Z,5.70
2023-05-20T14:18:51.998Z,5.30
2023-05-20T14:24:55.699Z,5.80
2023-05-20T14:31:00.489Z,4.35
2023-05-20T14:37:09.829Z,4.30
2023-05-20T14:43:13.367Z,5.03
2023-05-20T14:49:18.227Z,5.75
2023-05-20T14:55:21.825Z,7.97
2023-05-20T15:01:26.158Z,4.60
2023-05-20T15:07:31.576Z,5.60
2023-05-20T15:13:36.227Z,7.35
2023-05-20T15:19:41.788Z,5.13
2023-05-20T15:25:48.556Z,4.32
2023-05-20T15:31:55.449Z,4.53
2023-05-20T15:37:59.155Z,5.00
2023-05-20T15:44:04.062Z,5.20
2023-05-20T15:50:08.795Z,5.97
2023-05-20T15:56:13.135Z,5.47
2023-05-20T16:02:18.170Z,4.68
2023-05-20T16:08:23.905Z,5.50
2023-05-20T16:14:27.406Z,5.57
2023-05-20T16:20:32.388Z,6.60
2023-05-20T16:26:36.065Z,4.80
2023-05-20T16:32:39.802Z,7.55
2023-05-20T16:38:44.632Z,6.22
2023-05-20T16:44:48.657Z,7.95
2023-05-20T16:50:53.660Z,6.47
2023-05-20T17:02:55.016Z,5.38
2023-05-20T17:08:59.595Z,7.28
2023-05-20T17:15:03.055Z,6.47
2023-05-20T17:21:07.975Z,9.98
2023-05-20T17:27:11.435Z,12.68
2023-05-20T17:33:15.422Z,6.78
2023-05-20T17:39:20.736Z,6.65
2023-05-20T17:45:24.191Z,8.70
2023-05-20T17:51:27.784Z,6.63
2023-05-20T17:57:32.614Z,6.70
2023-05-20T18:03:37.643Z,5.72
2023-05-20T18:09:41.276Z,9.27
2023-05-20T18:15:47.085Z,6.90
2023-05-20T18:21:50.608Z,9.75
2023-05-20T18:27:54.703Z,9.35
2023-05-20T18:33:59.580Z,7.00
2023-05-20T18:40:03.183Z,6.45
2023-05-20T18:46:06.702Z,6.55
2023-05-20T18:52:11.632Z,10.95
2023-05-20T18:58:15.588Z,5.22
2023-05-20T19:04:19.062Z,5.95
2023-05-20T19:10:24.394Z,5.55
2023-05-20T19:16:28.312Z,8.15
2023-05-20T19:22:31.885Z,6.38
2023-05-20T19:28:36.744Z,5.93
2023-05-20T19:34:40.764Z,8.40
2023-05-20T19:40:45.206Z,7.88
2023-05-20T19:46:50.398Z,5.70
2023-05-20T19:52:53.957Z,7.47
2023-05-20T19:59:01.727Z,12.88
2023-05-20T20:05:07.425Z,7.38
2023-05-20T20:11:10.997Z,8.93
2023-05-20T20:17:16.856Z,8.13
2023-05-20T20:23:21.759Z,6.25
2023-05-20T20:29:25.753Z,5.47
2023-05-20T20:35:29.201Z,9.57
2023-05-20T20:41:34.541Z,5.22
2023-05-20T20:47:38.747Z,8.77
2023-05-20T20:53:43.054Z,8.70
2023-05-20T20:59:48.682Z,10.10
2023-05-20T21:05:52.150Z,5.95
2023-05-20T21:11:57.459Z,8.02
2023-05-20T21:18:02.362Z,6.90
2023-05-20T21:24:05.945Z,8.70
2023-05-20T21:30:10.166Z,6.57
2023-05-20T21:36:15.150Z,6.38
2023-05-20T21:42:18.556Z,6.82
2023-05-20T21:48:22.782Z,8.23
2023-05-20T21:54:27.563Z,7.10
2023-05-20T22:00:31.207Z,7.30
2023-05-20T22:06:36.288Z,9.48
2023-05-20T22:12:42.471Z,6.28
2023-05-20T22:18:47.833Z,9.73
2023-05-20T22:24:51.620Z,7.43
2023-05-20T22:30:56.565Z,6.90
2023-05-20T22:37:00.050Z,7.65
2023-05-20T22:43:03.500Z,7.65
2023-05-20T22:49:10.297Z,8.65
2023-05-20T22:55:14.596Z,9.65
2023-05-20T23:01:18.631Z,7.18
2023-05-20T23:07:24.001Z,8.77
2023-05-20T23:13:28.158Z,8.63
2023-05-20T23:19:31.830Z,8.55
2023-05-20T23:25:36.963Z,7.57
2023-05-20T23:31:40.819Z,8.52
2023-05-20T23:37:44.342Z,10.27
2023-05-20T23:43:49.182Z,8.25
2023-05-20T23:49:53.434Z,9.82
2023-05-20T23:55:59.475Z,10.98
